Time;durP1;ratioP1;P1;durP2;ratioP2;P2;SDS_P1;SDS_P2;PMS_P1;PMS_P2;Temp;Humidity;BMP_temperature;BMP_pressure;BME280_temperature;BME280_humidity;BME280_pressure;Samples;Min_cycle;Max_cycle;Signal;HPM_P1;HPM_P2
2023/09/01 00:00:43;;;;;;;6.60;3.85;;;15.20;99.90;;;;;;4961609;28;20043;-66
2023/09/01 00:03:51;;;;;;;4.90;3.70;;;15.20;99.90;;;;;;4961355;28;20042;-65
2023/09/01 00:06:25;;;;;;;5.70;3.00;;;15.20;99.90;;;;;;4963567;28;20046;-66
2023/09/01 00:08:52;;;;;;;6.85;3.25;;;15.20;99.90;;;;;;4957831;28;20133;-65
2023/09/01 00:11:24;;;;;;;7.20;2.90;;;15.20;99.90;;;;;;4966285;28;20050;-65
2023/09/01 00:13:56;;;;;;;4.10;2.88;;;15.20;99.90;;;;;;4961870;28;20419;-66
2023/09/01 00:16:22;;;;;;;3.10;2.67;;;15.20;99.90;;;;;;4955457;28;20050;-65
2023/09/01 00:18:54;;;;;;;7.60;4.03;;;15.20;99.90;;;;;;4953698;28;20512;-66
2023/09/01 00:21:26;;;;;;;5.85;2.92;;;15.20;99.90;;;;;;4954392;28;20031;-66
2023/09/01 00:23:58;;;;;;;5.63;2.90;;;15.20;99.90;;;;;;4957757;28;20050;-66
2023/09/01 00:26:30;;;;;;;3.97;2.63;;;15.20;99.90;;;;;;4962112;28;20045;-66
2023/09/01 00:29:02;;;;;;;3.50;2.35;;;15.20;99.90;;;;;;4962241;28;20055;-66
2023/09/01 00:31:34;;;;;;;4.50;3.60;;;15.20;99.90;;;;;;4959981;28;20055;-66
2023/09/01 00:34:06;;;;;;;5.35;3.33;;;15.10;99.90;;;;;;4967613;28;20427;-66
2023/09/01 00:36:33;;;;;;;4.25;3.75;;;15.10;99.90;;;;;;4969628;28;20063;-66
2023/09/01 00:39:05;;;;;;;6.72;3.65;;;15.00;99.90;;;;;;4940003;28;20043;-67
2023/09/01 00:41:37;;;;;;;4.38;3.95;;;15.00;99.90;;;;;;4947866;28;20054;-66
2023/09/01 00:44:04;;;;;;;5.32;3.78;;;14.90;99.90;;;;;;4959035;28;20122;-66
2023/09/01 00:46:36;;;;;;;6.05;4.10;;;14.90;99.90;;;;;;4965718;28;20051;-66
2023/09/01 00:49:03;;;;;;;5.80;3.75;;;14.80;99.90;;;;;;4967561;28;20047;-66
2023/09/01 00:51:36;;;;;;;5.80;4.18;;;14.80;99.90;;;;;;4960272;28;20039;-66
2023/09/01 00:54:09;;;;;;;7.90;4.47;;;14.80;99.90;;;;;;4967014;28;20050;-66
2023/09/01 00:56:43;;;;;;;7.43;4.10;;;14.80;99.90;;;;;;4942552;28;20979;-66
2023/09/01 00:59:15;;;;;;;5.65;3.88;;;14.70;99.90;;;;;;4982888;28;20069;-67
2023/09/01 01:01:42;;;;;;;5.03;4.18;;;14.70;99.90;;;;;;4963431;28;20130;-66
2023/09/01 01:04:15;;;;;;;5.17;3.67;;;14.60;99.90;;;;;;4952778;28;20154;-68
2023/09/01 01:07:09;;;;;;;5.28;3.92;;;14.60;99.90;;;;;;4961484;28;20055;-66
2023/09/01 01:09:56;;;;;;;5.63;3.95;;;14.60;99.90;;;;;;4958203;28;20520;-66
2023/09/01 01:12:43;;;;;;;5.05;4.25;;;14.60;99.90;;;;;;4954729;28;20056;-67
2023/09/01 01:15:14;;;;;;;5.05;3.80;;;14.60;99.90;;;;;;4961839;28;20040;-66
2023/09/01 01:17:47;;;;;;;5.15;3.90;;;14.60;99.90;;;;;;4965815;28;20039;-66
2023/09/01 01:20:37;;;;;;;5.47;3.83;;;14.60;99.90;;;;;;4966409;28;20539;-66
2023/09/01 01:23:17;;;;;;;4.80;3.90;;;14.60;99.90;;;;;;4961917;28;20131;-66
2023/09/01 01:25:50;;;;;;;5.85;4.40;;;14.60;99.90;;;;;;4955777;28;20070;-66
2023/09/01 01:28:22;;;;;;;5.65;4.22;;;14.60;99.90;;;;;;4968136;28;20047;-66
2023/09/01 01:30:54;;;;;;;4.82;3.67;;;14.60;99.90;;;;;;4960753;28;20109;-66
2023/09/01 01:33:33;;;;;;;5.30;4.40;;;14.60;99.90;;;;;;4956214;28;20047;-66
2023/09/01 01:36:05;;;;;;;;;;;14.60;99.90;;;;;;4965569;28;20062;-66
2023/09/01 01:38:38;;;;;;;6.18;3.95;;;14.60;99.90;;;;;;4964200;28;20013;-66
2023/09/01 01:41:09;;;;;;;4.65;3.72;;;14.60;99.90;;;;;;4963030;28;20126;-66
2023/09/01 01:43:42;;;;;;;5.03;3.70;;;14.60;99.90;;;;;;4973120;28;20135;-66
2023/09/01 01:46:09;;;;;;;5.80;4.03;;;14.60;99.90;;;;;;4972963;28;20133;-66
2023/09/01 01:48:41;;;;;;;5.07;3.80;;;14.60;99.90;;;;;;4964315;28;20047;-66
2023/09/01 01:51:14;;;;;;;7.45;3.80;;;14.60;99.90;;;;;;4956940;28;20520;-66
2023/09/01 01:53:46;;;;;;;4.72;3.45;;;14.60;99.90;;;;;;4964549;28;20057;-66
2023/09/01 01:56:18;;;;;;;5.50;3.30;;;14.60;99.90;;;;;;4963643;28;20042;-67
2023/09/01 01:58:50;;;;;;;5.80;3.45;;;14.60;99.90;;;;;;4976265;28;20520;-66
2023/09/01 02:01:22;;;;;;;4.35;3.55;;;14.70;99.90;;;;;;4965034;28;20126;-66
2023/09/01 02:03:49;;;;;;;6.60;3.85;;;14.70;99.90;;;;;;4963192;28;20137;-67
2023/09/01 02:06:16;;;;;;;3.92;3.20;;;14.70;99.90;;;;;;4955855;28;20524;-66
2023/09/01 02:08:43;;;;;;;8.07;3.53;;;14.70;99.90;;;;;;4962281;28;20149;-66
2023/09/01 02:11:15;;;;;;;4.63;3.00;;;14.70;99.90;;;;;;4961613;28;20523;-66
2023/09/01 02:13:46;;;;;;;4.25;3.28;;;14.70;99.90;;;;;;4958983;28;20051;-66
2023/09/01 02:16:18;;;;;;;4.30;3.35;;;14.80;99.90;;;;;;4968485;28;20050;-66
2023/09/01 02:18:50;;;;;;;4.35;2.92;;;14.80;99.90;;;;;;4962962;28;20043;-66
2023/09/01 02:21:21;;;;;;;4.28;3.45;;;14.80;99.90;;;;;;4973107;28;20042;-66
2023/09/01 02:23:52;;;;;;;3.83;2.80;;;14.90;99.90;;;;;;4980681;28;20420;-66
2023/09/01 02:26:21;;;;;;;5.88;2.97;;;15.00;99.90;;;;;;4964501;28;20118;-66
2023/09/01 02:28:49;;;;;;;4.78;3.15;;;15.10;99.90;;;;;;4954757;28;20039;-66
2023/09/01 02:31:21;;;;;;;5.28;3.10;;;15.20;99.90;;;;;;4963631;28;20034;-67
2023/09/01 02:33:53;;;;;;;5.95;2.92;;;15.30;99.90;;;;;;4973466;28;20062;-65
2023/09/01 02:36:33;;;;;;;5.70;3.15;;;15.30;99.90;;;;;;4957608;28;20130;-66
2023/09/01 02:39:01;;;;;;;4.03;2.55;;;15.30;99.90;;;;;;4960870;28;20035;-66
2023/09/01 02:41:34;;;;;;;4.50;3.05;;;15.30;99.90;;;;;;4977308;28;20102;-66
2023/09/01 02:44:06;;;;;;;3.13;2.65;;;15.30;99.90;;;;;;4962980;28;20031;-66
2023/09/01 02:46:38;;;;;;;4.00;3.22;;;15.20;99.90;;;;;;4963006;28;20389;-66
2023/09/01 02:49:10;;;;;;;3.45;2.85;;;15.20;99.90;;;;;;4960135;28;20166;-66
2023/09/01 02:51:41;;;;;;;3.45;2.90;;;15.10;99.90;;;;;;4957455;28;20047;-66
2023/09/01 02:54:14;;;;;;;5.20;2.80;;;15.10;99.90;;;;;;4967580;28;20053;-66
2023/09/01 02:56:46;;;;;;;4.03;2.67;;;15.10;99.90;;;;;;4958323;28;20055;-67
2023/09/01 02:59:18;;;;;;;4.30;3.15;;;15.10;99.90;;;;;;4985629;28;20050;-66
2023/09/01 03:01:45;;;;;;;4.03;2.90;;;15.20;99.90;;;;;;4958766;28;20118;-66
2023/09/01 03:04:17;;;;;;;3.67;2.72;;;15.20;99.90;;;;;;4962916;28;20051;-66
2023/09/01 03:06:49;;;;;;;4.00;2.63;;;15.30;99.90;;;;;;4945846;28;20133;-67
2023/09/01 03:09:22;;;;;;;3.30;2.28;;;15.30;99.90;;;;;;4967547;28;20109;-66
2023/09/01 03:11:54;;;;;;;5.25;2.60;;;15.40;99.90;;;;;;4966876;28;20567;-66
2023/09/01 03:14:22;;;;;;;3.72;2.58;;;15.40;99.90;;;;;;4966349;28;20460;-65
2023/09/01 03:16:53;;;;;;;3.60;2.40;;;15.40;99.90;;;;;;4959570;28;20047;-66
2023/09/01 03:19:26;;;;;;;2.80;2.50;;;15.40;99.90;;;;;;4967245;28;20035;-66
2023/09/01 03:21:58;;;;;;;2.85;2.13;;;15.40;99.90;;;;;;4963553;28;20067;-66
2023/09/01 03:24:30;;;;;;;3.10;2.13;;;15.40;99.90;;;;;;4963076;28;20042;-66
2023/09/01 03:27:03;;;;;;;2.80;2.10;;;15.40;99.90;;;;;;4960138;28;20500;-66
2023/09/01 03:29:35;;;;;;;5.13;2.72;;;15.40;99.90;;;;;;4960443;28;20492;-66
2023/09/01 03:32:02;;;;;;;5.60;3.00;;;15.40;99.90;;;;;;4964341;28;20039;-66
2023/09/01 03:34:30;;;;;;;3.78;2.50;;;15.50;99.90;;;;;;4958654;28;20050;-66
2023/09/01 03:37:01;;;;;;;4.05;2.70;;;15.50;99.90;;;;;;4958238;28;20122;-66
2023/09/01 03:39:33;;;;;;;3.65;2.55;;;15.60;99.90;;;;;;4953077;28;20826;-66
2023/09/01 03:42:00;;;;;;;3.70;2.33;;;15.60;99.90;;;;;;4956743;28;20036;-66
2023/09/01 03:44:32;;;;;;;4.30;2.30;;;15.60;99.90;;;;;;4937597;28;20071;-66
2023/09/01 03:47:04;;;;;;;3.13;2.15;;;15.50;99.90;;;;;;4967530;28;20055;-66
2023/09/01 03:49:37;;;;;;;3.70;2.40;;;15.50;99.90;;;;;;4958106;28;20043;-66
2023/09/01 03:52:09;;;;;;;4.07;2.20;;;15.50;99.90;;;;;;4961478;28;20054;-66
2023/09/01 03:54:36;;;;;;;4.22;2.15;;;15.60;99.90;;;;;;4963985;28;20127;-66
2023/09/01 03:57:08;;;;;;;3.08;2.13;;;15.60;99.90;;;;;;4958784;28;20045;-66
2023/09/01 03:59:41;;;;;;;4.75;2.13;;;15.60;99.90;;;;;;4955904;28;20496;-66
2023/09/01 04:02:13;;;;;;;5.38;2.83;;;15.60;99.90;;;;;;4950510;28;20043;-66
2023/09/01 04:04:45;;;;;;;3.85;2.20;;;15.60;99.90;;;;;;4953397;28;20624;-66
2023/09/01 04:07:16;;;;;;;3.97;2.00;;;15.60;99.90;;;;;;4955049;28;20046;-66
2023/09/01 04:09:48;;;;;;;4.30;2.50;;;15.60;99.90;;;;;;4961308;28;20458;-66
2023/09/01 04:12:20;;;;;;;2.78;2.22;;;15.60;99.90;;;;;;4945167;28;20039;-66
2023/09/01 04:14:53;;;;;;;3.65;2.20;;;15.50;99.90;;;;;;4958624;28;20173;-66
2023/09/01 04:17:26;;;;;;;3.88;2.03;;;15.50;99.90;;;;;;4966787;28;20579;-66
2023/09/01 04:19:53;;;;;;;3.50;2.15;;;15.40;99.90;;;;;;4958887;28;20139;-66
2023/09/01 04:22:27;;;;;;;5.30;2.30;;;15.40;99.90;;;;;;4957281;28;20047;-66
2023/09/01 04:24:59;;;;;;;;;;;15.40;99.90;;;;;;4958256;28;20564;-66
2023/09/01 04:27:26;;;;;;;3.53;2.70;;;15.30;99.90;;;;;;4965356;28;19926;-66
2023/09/01 04:29:58;;;;;;;2.30;2.10;;;15.30;99.90;;;;;;4942422;28;20058;-66
2023/09/01 04:32:25;;;;;;;2.90;2.25;;;15.30;99.90;;;;;;4966723;28;20133;-66
2023/09/01 04:34:57;;;;;;;3.88;2.50;;;15.30;99.90;;;;;;4947637;28;20050;-66
2023/09/01 04:37:29;;;;;;;4.80;2.17;;;15.40;99.90;;;;;;4960885;28;20072;-66
2023/09/01 04:39:56;;;;;;;2.90;2.38;;;15.40;99.90;;;;;;4963831;28;20419;-66
2023/09/01 04:42:28;;;;;;;5.20;2.28;;;15.50;99.90;;;;;;4965840;28;20047;-66
2023/09/01 04:45:00;;;;;;;3.80;1.98;;;15.50;99.90;;;;;;4954722;28;20126;-66
2023/09/01 04:47:27;;;;;;;3.22;2.13;;;15.60;99.90;;;;;;4952369;28;20504;-66
2023/09/01 04:49:59;;;;;;;4.88;3.00;;;15.60;99.90;;;;;;4941100;28;20042;-66
2023/09/01 04:52:31;;;;;;;3.17;2.38;;;15.60;99.90;;;;;;4954820;28;20058;-65
2023/09/01 04:55:04;;;;;;;3.78;2.03;;;15.60;99.90;;;;;;4962570;28;20546;-66
2023/09/01 04:57:36;;;;;;;3.10;1.92;;;15.70;99.90;;;;;;4961120;28;20420;-66
2023/09/01 05:00:15;;;;;;;4.30;2.40;;;15.70;99.90;;;;;;4960462;28;20063;-66
2023/09/01 05:02:47;;;;;;;7.47;2.20;;;15.70;99.90;;;;;;4947747;28;20138;-66
2023/09/01 05:05:14;;;;;;;2.33;1.75;;;15.70;99.90;;;;;;4965743;28;20050;-66
2023/09/01 05:07:46;;;;;;;2.15;1.80;;;15.70;99.90;;;;;;4955856;28;20062;-66
2023/09/01 05:10:19;;;;;;;4.43;2.33;;;15.70;99.90;;;;;;4971746;28;20047;-66
2023/09/01 05:12:50;;;;;;;4.90;2.80;;;15.70;99.90;;;;;;4964580;28;20057;-66
2023/09/01 05:15:23;;;;;;;2.22;1.92;;;15.70;99.90;;;;;;4966341;28;20047;-66
2023/09/01 05:17:55;;;;;;;2.65;2.05;;;15.70;99.90;;;;;;4977804;28;20134;-66
2023/09/01 05:20:26;;;;;;;3.17;1.80;;;15.60;99.90;;;;;;4960874;28;20050;-66
2023/09/01 05:22:58;;;;;;;3.10;2.05;;;15.60;99.90;;;;;;4968883;28;20042;-66
2023/09/01 05:25:32;;;;;;;3.03;1.60;;;15.60;99.90;;;;;;4960041;28;20480;-66
2023/09/01 05:28:04;;;;;;;4.10;2.22;;;15.60;99.90;;;;;;4933557;28;20043;-66
2023/09/01 05:30:39;;;;;;;3.28;1.60;;;15.60;99.90;;;;;;4941488;28;20048;-66
2023/09/01 05:33:06;;;;;;;3.78;2.47;;;15.60;99.90;;;;;;4951602;28;20702;-66
2023/09/01 05:35:38;;;;;;;2.50;1.70;;;15.60;99.90;;;;;;4952834;28;20057;-66
2023/09/01 05:38:10;;;;;;;2.60;1.60;;;15.60;99.90;;;;;;4954782;28;20036;-66
2023/09/01 05:40:42;;;;;;;4.47;1.98;;;15.70;99.90;;;;;;4955888;28;20044;-66
2023/09/01 05:43:09;;;;;;;2.45;1.50;;;15.70;99.90;;;;;;4961837;28;20039;-66
2023/09/01 05:45:41;;;;;;;3.30;2.10;;;15.70;99.90;;;;;;4974005;28;20063;-66
2023/09/01 05:48:08;;;;;;;3.28;1.90;;;15.80;99.90;;;;;;4957359;28;20398;-66
2023/09/01 05:50:42;;;;;;;4.00;1.85;;;15.80;99.90;;;;;;4956514;28;20058;-66
2023/09/01 05:53:16;;;;;;;3.50;1.90;;;15.80;99.90;;;;;;4963164;28;20134;-66
2023/09/01 05:55:48;;;;;;;2.78;2.00;;;15.80;99.90;;;;;;4957603;28;20047;-66
2023/09/01 05:58:19;;;;;;;3.45;2.40;;;15.80;99.90;;;;;;4952786;28;20045;-66
2023/09/01 06:00:51;;;;;;;4.13;2.03;;;15.90;99.90;;;;;;4952829;28;20405;-66
2023/09/01 06:03:23;;;;;;;2.03;1.65;;;15.90;99.90;;;;;;4941320;28;20039;-66
2023/09/01 06:05:55;;;;;;;5.88;2.33;;;15.90;99.90;;;;;;4961751;28;20051;-66
2023/09/01 06:08:27;;;;;;;3.67;2.15;;;15.90;99.90;;;;;;4958277;28;20039;-66
2023/09/01 06:11:04;;;;;;;2.80;1.88;;;15.90;99.90;;;;;;4965449;28;20524;-66
2023/09/01 06:13:36;;;;;;;4.03;2.20;;;16.00;99.90;;;;;;4960450;28;20505;-66
2023/09/01 06:16:09;;;;;;;2.28;2.03;;;16.10;99.90;;;;;;4960600;28;20491;-66
2023/09/01 06:18:41;;;;;;;4.50;1.92;;;16.10;99.90;;;;;;4955789;28;20094;-66
2023/09/01 06:21:16;;;;;;;4.32;1.88;;;16.10;99.90;;;;;;4956654;28;20035;-66
2023/09/01 06:23:47;;;;;;;2.85;1.92;;;16.10;99.90;;;;;;4962323;28;20049;-66
2023/09/01 06:26:20;;;;;;;2.70;1.88;;;16.20;99.90;;;;;;4970067;28;20043;-65
2023/09/01 06:28:52;;;;;;;4.00;2.17;;;16.20;99.90;;;;;;4964935;28;20057;-66
2023/09/01 06:31:24;;;;;;;3.22;2.30;;;16.20;99.90;;;;;;4963836;28;20038;-66
2023/09/01 06:33:55;;;;;;;4.18;2.00;;;16.20;99.90;;;;;;4960062;28;20532;-66
2023/09/01 06:36:27;;;;;;;2.88;1.98;;;16.30;99.90;;;;;;4957802;28;20039;-66
2023/09/01 06:38:59;;;;;;;3.53;2.00;;;16.30;99.90;;;;;;4958148;28;20119;-65
2023/09/01 06:41:26;;;;;;;3.45;2.40;;;16.30;99.90;;;;;;4959349;28;20516;-66
2023/09/01 06:43:58;;;;;;;2.63;2.13;;;16.40;99.90;;;;;;4957696;28;20042;-66
2023/09/01 06:46:25;;;;;;;4.70;2.17;;;16.50;99.90;;;;;;4959871;28;20062;-66
2023/09/01 06:48:57;;;;;;;3.47;2.50;;;16.50;99.90;;;;;;4958175;28;20058;-66
2023/09/01 06:51:29;;;;;;;3.75;1.92;;;16.50;99.90;;;;;;4964410;28;20054;-65
2023/09/01 06:54:01;;;;;;;5.07;2.60;;;16.60;99.90;;;;;;4963681;28;20054;-66
2023/09/01 06:56:32;;;;;;;3.25;1.88;;;16.60;99.90;;;;;;4959181;28;20075;-66
2023/09/01 06:59:04;;;;;;;3.22;2.00;;;16.70;99.90;;;;;;4957163;28;20043;-65
2023/09/01 07:01:36;;;;;;;2.80;2.13;;;16.70;99.90;;;;;;4956517;28;20070;-66
2023/09/01 07:04:08;;;;;;;2.90;2.05;;;16.70;99.90;;;;;;4969744;28;20408;-65
2023/09/01 07:06:35;;;;;;;3.75;1.88;;;16.70;99.90;;;;;;4953012;28;20516;-65
2023/09/01 07:09:11;;;;;;;2.30;2.10;;;16.80;99.90;;;;;;4954004;28;20090;-66
2023/09/01 07:11:43;;;;;;;4.82;2.08;;;16.80;99.90;;;;;;4965309;28;20473;-65
2023/09/01 07:14:15;;;;;;;3.15;1.92;;;16.90;99.90;;;;;;4961895;28;20039;-66
2023/09/01 07:16:47;;;;;;;2.88;1.80;;;17.00;99.90;;;;;;4962483;28;20070;-67
2023/09/01 07:19:14;;;;;;;3.10;1.90;;;17.10;99.90;;;;;;4960183;28;20126;-66
2023/09/01 07:21:46;;;;;;;2.77;1.83;;;17.20;99.90;;;;;;4957731;28;20544;-66
2023/09/01 07:24:18;;;;;;;2.80;2.00;;;17.30;99.90;;;;;;4958570;28;20102;-66
2023/09/01 07:26:50;;;;;;;2.50;1.85;;;17.30;99.90;;;;;;4969223;28;20161;-65
2023/09/01 07:29:17;;;;;;;2.88;1.98;;;17.30;99.90;;;;;;4957382;28;20040;-65
2023/09/01 07:31:49;;;;;;;3.30;2.35;;;17.40;99.90;;;;;;4959266;28;20393;-66
2023/09/01 07:34:21;;;;;;;3.85;1.83;;;17.40;99.90;;;;;;4962186;28;20121;-65
2023/09/01 07:36:54;;;;;;;2.72;1.90;;;17.50;99.90;;;;;;4976240;28;20042;-66
2023/09/01 07:39:29;;;;;;;2.67;1.98;;;17.50;99.90;;;;;;4956972;28;20038;-65
2023/09/01 07:42:04;;;;;;;3.88;2.13;;;17.60;99.90;;;;;;4959395;28;20489;-65
2023/09/01 07:44:31;;;;;;;3.60;1.70;;;17.60;99.90;;;;;;4954745;28;20042;-65
2023/09/01 07:47:03;;;;;;;3.80;2.05;;;17.70;99.90;;;;;;4953667;28;20047;-65
2023/09/01 07:49:31;;;;;;;6.80;1.98;;;17.60;99.90;;;;;;4956704;28;20039;-65
2023/09/01 07:52:03;;;;;;;5.15;1.77;;;17.60;99.90;;;;;;4956607;28;20049;-66
2023/09/01 07:54:30;;;;;;;4.15;1.80;;;17.60;99.90;;;;;;4959013;28;20047;-66
2023/09/01 07:57:03;;;;;;;3.63;1.80;;;17.50;99.90;;;;;;4961672;28;20042;-66
2023/09/01 07:59:36;;;;;;;2.88;1.80;;;17.40;99.90;;;;;;4959551;28;20046;-66
2023/09/01 08:02:08;;;;;;;2.27;1.40;;;17.40;99.90;;;;;;4960997;28;20039;-66
2023/09/01 08:04:40;;;;;;;4.05;1.92;;;17.50;99.90;;;;;;4957449;28;20386;-66
2023/09/01 08:07:12;;;;;;;3.65;2.13;;;17.60;99.90;;;;;;4965468;28;20051;-66
2023/09/01 08:09:44;;;;;;;2.00;1.70;;;17.70;99.90;;;;;;4954382;28;20058;-65
2023/09/01 08:12:16;;;;;;;3.38;1.70;;;17.70;99.90;;;;;;4960988;28;20464;-66
2023/09/01 08:14:48;;;;;;;2.70;2.00;;;17.80;99.90;;;;;;4950713;28;20154;-66
2023/09/01 08:17:20;;;;;;;3.35;2.30;;;17.80;99.90;;;;;;4958968;28;20225;-66
2023/09/01 08:19:52;;;;;;;3.97;2.13;;;17.90;99.90;;;;;;4966423;28;20053;-67
2023/09/01 08:22:24;;;;;;;3.58;2.08;;;18.10;99.90;;;;;;4961625;28;20043;-65
2023/09/01 08:24:56;;;;;;;2.70;1.88;;;18.20;99.90;;;;;;4959840;28;20047;-66
2023/09/01 08:27:28;;;;;;;2.20;2.00;;;18.30;99.90;;;;;;4956897;28;20102;-66
2023/09/01 08:30:00;;;;;;;2.60;1.77;;;18.50;99.90;;;;;;4956759;28;20047;-65
2023/09/01 08:32:33;;;;;;;3.38;2.10;;;18.70;99.90;;;;;;4950887;28;20130;-66
2023/09/01 08:35:05;;;;;;;7.18;2.20;;;18.90;99.90;;;;;;4954030;28;20053;-66
2023/09/01 08:37:38;;;;;;;3.58;2.08;;;19.00;99.90;;;;;;4964323;28;20045;-66
2023/09/01 08:40:09;;;;;;;6.13;2.00;;;19.10;99.90;;;;;;4963876;28;20057;-66
2023/09/01 08:42:38;;;;;;;3.53;2.15;;;19.20;99.90;;;;;;4960693;28;20122;-66
2023/09/01 08:45:10;;;;;;;3.95;1.92;;;19.20;99.90;;;;;;4964005;28;20046;-65
2023/09/01 08:47:43;;;;;;;3.00;1.85;;;19.10;99.90;;;;;;4957406;28;20069;-66
2023/09/01 08:50:17;;;;;;;3.63;2.00;;;19.20;99.90;;;;;;4956905;28;20039;-66
2023/09/01 08:52:49;;;;;;;2.55;1.95;;;19.20;99.90;;;;;;4955124;28;20066;-67
2023/09/01 08:55:21;;;;;;;3.60;2.00;;;19.30;99.90;;;;;;4965456;28;20062;-66
2023/09/01 08:57:49;;;;;;;3.38;2.40;;;19.40;99.90;;;;;;4954079;28;20082;-65
2023/09/01 09:00:21;;;;;;;2.85;1.83;;;19.60;99.90;;;;;;4970529;28;20126;-66
2023/09/01 09:02:53;;;;;;;3.90;2.00;;;19.80;99.90;;;;;;4953418;28;20698;-66
2023/09/01 09:05:22;;;;;;;2.85;1.95;;;19.80;99.90;;;;;;4958932;28;20043;-65
2023/09/01 09:08:03;;;;;;;4.53;2.15;;;19.80;99.90;;;;;;4951265;28;20055;-66
2023/09/01 09:10:37;;;;;;;2.58;1.65;;;19.90;99.90;;;;;;4960996;28;20035;-65
2023/09/01 09:13:23;;;;;;;3.53;1.85;;;20.00;99.90;;;;;;4971700;28;20097;-65
2023/09/01 09:16:04;;;;;;;3.72;1.83;;;19.80;99.90;;;;;;4955619;28;20047;-65
2023/09/01 09:18:38;;;;;;;2.80;1.83;;;19.70;99.90;;;;;;4949649;28;20078;-66
2023/09/01 09:21:29;;;;;;;4.13;1.73;;;19.80;99.90;;;;;;4955327;28;20134;-67
2023/09/01 09:24:03;;;;;;;2.60;1.88;;;20.00;99.90;;;;;;4962583;28;20113;-65
2023/09/01 09:26:31;;;;;;;2.65;1.80;;;20.10;99.90;;;;;;4961884;28;20032;-65
2023/09/01 09:29:10;;;;;;;2.58;2.00;;;20.40;99.90;;;;;;4961529;28;20134;-65
2023/09/01 09:31:44;;;;;;;3.15;2.10;;;20.60;99.90;;;;;;4963192;28;20065;-66
2023/09/01 09:34:24;;;;;;;2.13;1.75;;;20.70;99.90;;;;;;4951503;28;20070;-65
2023/09/01 09:36:56;;;;;;;2.83;1.88;;;20.80;99.90;;;;;;4954782;28;20131;-66
2023/09/01 09:39:34;;;;;;;2.58;1.95;;;20.90;99.90;;;;;;4953438;28;20040;-65
2023/09/01 09:42:06;;;;;;;3.33;2.10;;;21.00;99.90;;;;;;4964404;28;20043;-66
2023/09/01 09:44:37;;;;;;;2.90;1.63;;;21.00;99.90;;;;;;4951911;28;20046;-66
2023/09/01 09:47:12;;;;;;;5.18;2.00;;;21.10;99.90;;;;;;4969928;28;20058;-65
2023/09/01 09:49:45;;;;;;;2.72;1.67;;;21.30;99.90;;;;;;4963765;28;20166;-66
2023/09/01 09:52:19;;;;;;;1.90;1.45;;;21.30;99.90;;;;;;4965879;28;20134;-66
2023/09/01 09:54:49;;;;;;;5.63;2.00;;;21.40;99.90;;;;;;4967932;28;20061;-65
2023/09/01 09:57:21;;;;;;;3.05;1.50;;;21.40;99.90;;;;;;4961829;28;20393;-65
2023/09/01 10:00:10;;;;;;;2.85;1.60;;;21.40;99.90;;;;;;4955958;28;20036;-66
2023/09/01 10:02:50;;;;;;;1.80;1.27;;;21.50;99.90;;;;;;4961464;28;20516;-66
2023/09/01 10:05:23;;;;;;;2.05;1.42;;;21.50;99.90;;;;;;4944753;28;20031;-65
2023/09/01 10:07:57;;;;;;;3.30;1.60;;;21.60;99.90;;;;;;4962016;28;20050;-66
2023/09/01 10:10:33;;;;;;;2.40;1.20;;;21.70;99.90;;;;;;4966922;28;20047;-65
2023/09/01 10:13:09;;;;;;;3.58;1.60;;;21.50;99.90;;;;;;4962283;28;20060;-66
2023/09/01 10:15:42;;;;;;;3.03;1.38;;;21.50;99.90;;;;;;4931093;28;20059;-66
2023/09/01 10:18:15;;;;;;;2.20;1.30;;;21.60;99.90;;;;;;4964053;28;20035;-66
2023/09/01 10:20:47;;;;;;;3.08;1.23;;;21.60;99.90;;;;;;4964636;28;20047;-65
2023/09/01 10:23:19;;;;;;;2.42;1.40;;;21.60;99.90;;;;;;4956019;28;20049;-66
2023/09/01 10:26:28;;;;;;;3.90;1.60;;;21.50;99.90;;;;;;4953123;28;20071;-65
2023/09/01 10:29:03;;;;;;;2.58;1.30;;;21.40;99.90;;;;;;4900674;29;20304;-65
2023/09/01 10:31:36;;;;;;;4.53;1.48;;;21.40;99.90;;;;;;4961753;28;20058;-65
2023/09/01 10:34:15;;;;;;;4.45;1.50;;;21.60;99.90;;;;;;4963330;28;20054;-66
2023/09/01 10:37:26;;;;;;;2.80;1.52;;;21.80;99.90;;;;;;4964191;28;20047;-66
2023/09/01 10:39:53;;;;;;;6.28;1.30;;;21.90;99.90;;;;;;4980134;28;20411;-66
2023/09/01 10:42:39;;;;;;;2.40;1.55;;;21.90;99.90;;;;;;4953382;28;20067;-65
2023/09/01 10:45:06;;;;;;;2.88;1.30;;;22.10;99.90;;;;;;4958860;28;20050;-65
2023/09/01 10:47:38;;;;;;;3.03;1.38;;;22.00;99.90;;;;;;4955572;28;20160;-66
2023/09/01 10:50:12;;;;;;;2.08;1.63;;;22.10;99.90;;;;;;4963207;28;20597;-66
2023/09/01 10:52:42;;;;;;;2.67;1.42;;;22.30;99.90;;;;;;4962440;28;20045;-65
2023/09/01 10:55:13;;;;;;;1.67;1.10;;;22.40;99.90;;;;;;4950443;28;20134;-65
2023/09/01 10:57:49;;;;;;;2.28;1.40;;;22.40;99.90;;;;;;4964948;28;20050;-65
2023/09/01 11:00:32;;;;;;;3.33;1.17;;;22.30;99.90;;;;;;4962482;28;20039;-65
2023/09/01 11:03:25;;;;;;;2.42;1.20;;;22.20;99.90;;;;;;4961243;28;20070;-65
2023/09/01 11:06:03;;;;;;;2.78;1.48;;;21.90;99.90;;;;;;4981907;28;20102;-65
2023/09/01 11:08:36;;;;;;;1.85;1.42;;;21.70;99.90;;;;;;4960490;28;20443;-65
2023/09/01 11:11:09;;;;;;;2.20;1.63;;;21.60;99.90;;;;;;4954936;28;20508;-65
2023/09/01 11:13:41;;;;;;;9.73;1.90;;;21.60;99.90;;;;;;4957117;28;20058;-65
2023/09/01 11:16:13;;;;;;;2.70;1.35;;;21.70;99.90;;;;;;4957364;28;20055;-66
2023/09/01 11:18:40;;;;;;;2.78;1.40;;;21.80;99.90;;;;;;4961063;28;20484;-65
2023/09/01 11:21:12;;;;;;;2.45;1.50;;;21.80;99.90;;;;;;4960872;28;20067;-66
2023/09/01 11:23:44;;;;;;;3.45;1.30;;;22.10;99.90;;;;;;4961397;28;20062;-66
2023/09/01 11:26:17;;;;;;;2.08;1.48;;;22.30;99.90;;;;;;4958140;28;20047;-66
2023/09/01 11:28:49;;;;;;;2.55;1.35;;;22.30;99.90;;;;;;4961084;28;20062;-65
2023/09/01 11:31:21;;;;;;;4.10;1.35;;;22.50;99.90;;;;;;4980979;28;20057;-66
2023/09/01 11:33:54;;;;;;;2.55;1.40;;;22.50;99.90;;;;;;4954687;28;20043;-65
2023/09/01 11:36:26;;;;;;;2.85;1.50;;;22.50;99.90;;;;;;4956523;28;20043;-65
2023/09/01 11:38:53;;;;;;;2.78;1.48;;;22.50;99.90;;;;;;4960726;28;20039;-65
2023/09/01 11:41:26;;;;;;;2.60;1.27;;;22.60;99.90;;;;;;4968767;28;20055;-65
2023/09/01 11:43:59;;;;;;;3.05;1.40;;;22.80;99.90;;;;;;4962485;28;20043;-65
2023/09/01 11:46:34;;;;;;;2.95;1.40;;;22.70;99.90;;;;;;4960941;28;20505;-66
2023/09/01 11:49:07;;;;;;;2.05;1.40;;;22.90;99.90;;;;;;4959613;28;20055;-65
2023/09/01 11:51:37;;;;;;;2.53;1.42;;;23.10;99.90;;;;;;4961261;28;20035;-65
2023/09/01 11:54:09;;;;;;;3.35;1.30;;;23.00;99.90;;;;;;4945753;28;20048;-66
2023/09/01 11:56:41;;;;;;;2.78;1.40;;;22.90;99.90;;;;;;4954790;28;20047;-65
2023/09/01 11:59:19;;;;;;;1.45;1.17;;;23.00;99.90;;;;;;4956584;28;20053;-66
2023/09/01 12:01:54;;;;;;;1.40;1.30;;;23.00;99.90;;;;;;4943354;28;20055;-66
2023/09/01 12:04:26;;;;;;;1.98;1.27;;;23.00;99.90;;;;;;4960498;28;20043;-65
2023/09/01 12:06:58;;;;;;;2.67;1.20;;;22.90;99.90;;;;;;4975468;28;20050;-65
2023/09/01 12:09:29;;;;;;;2.05;1.63;;;22.90;99.90;;;;;;4958962;28;20054;-66
2023/09/01 12:12:02;;;;;;;2.25;1.27;;;22.90;99.90;;;;;;4958427;28;20596;-65
2023/09/01 12:14:35;;;;;;;5.55;1.30;;;23.00;99.90;;;;;;4971364;28;20047;-65
2023/09/01 12:17:16;;;;;;;2.00;1.55;;;23.10;99.90;;;;;;4961319;28;20093;-65
2023/09/01 12:19:51;;;;;;;3.67;1.30;;;23.00;99.90;;;;;;4954910;28;20094;-65
2023/09/01 12:22:23;;;;;;;2.67;1.40;;;22.80;99.90;;;;;;4963770;28;20114;-65
2023/09/01 12:24:56;;;;;;;3.10;1.20;;;22.70;99.90;;;;;;4961899;28;20047;-65
2023/09/01 12:27:28;;;;;;;;;;;22.70;99.90;;;;;;4960722;28;20040;-65
2023/09/01 12:29:55;;;;;;;3.20;1.17;;;22.90;99.90;;;;;;4960752;28;19926;-65
2023/09/01 12:32:27;;;;;;;2.15;1.17;;;23.00;99.90;;;;;;4959841;28;20134;-65
2023/09/01 12:34:59;;;;;;;2.53;1.20;;;22.90;99.90;;;;;;4952473;28;20056;-65
2023/09/01 12:37:31;;;;;;;2.35;1.20;;;23.00;99.90;;;;;;4969689;28;20055;-65
2023/09/01 12:40:04;;;;;;;1.90;1.30;;;23.10;99.90;;;;;;4970752;28;20051;-65
2023/09/01 12:42:36;;;;;;;1.95;1.30;;;23.10;99.90;;;;;;4954457;28;20031;-66
2023/09/01 12:45:10;;;;;;;1.02;0.90;;;23.10;99.90;;;;;;4961060;28;20512;-65
2023/09/01 12:47:42;;;;;;;2.90;1.50;;;23.10;99.90;;;;;;4959034;28;20098;-65
2023/09/01 12:50:09;;;;;;;2.28;1.13;;;23.10;99.90;;;;;;4959838;28;20051;-65
2023/09/01 12:52:41;;;;;;;3.75;1.42;;;23.10;99.90;;;;;;4956469;28;20649;-65
2023/09/01 12:55:13;;;;;;;2.03;1.20;;;23.10;99.90;;;;;;4959359;28;20472;-66
2023/09/01 12:57:44;;;;;;;1.50;1.00;;;23.20;99.90;;;;;;4957324;28;20072;-65
2023/09/01 13:00:16;;;;;;;2.08;1.25;;;23.00;99.90;;;;;;4956308;28;20043;-65
2023/09/01 13:02:52;;;;;;;2.08;1.20;;;23.10;99.90;;;;;;4950040;28;20047;-65
2023/09/01 13:05:24;;;;;;;2.80;0.90;;;23.30;99.90;;;;;;4965344;28;20049;-66
2023/09/01 13:07:51;;;;;;;1.60;1.05;;;23.30;99.90;;;;;;4956284;28;20047;-65
2023/09/01 13:10:23;;;;;;;1.73;0.90;;;23.30;99.90;;;;;;4957366;28;20050;-65
2023/09/01 13:12:55;;;;;;;1.45;0.93;;;23.50;99.90;;;;;;4961509;28;20047;-65
2023/09/01 13:15:22;;;;;;;1.48;1.00;;;23.70;99.90;;;;;;4976733;28;20077;-65